Time;durP1;ratioP1;P1;durP2;ratioP2;P2;SDS_P1;SDS_P2;PMS_P1;PMS_P2;Temp;Humidity;BMP_temperature;BMP_pressure;BME280_temperature;BME280_humidity;BME280_pressure;Samples;Min_cycle;Max_cycle;Signal;HPM_P1;HPM_P2
2023/05/25 00:02:19;;;;;;;9.10;4.90;;;9.70;99.90;;;10.41;69.70;98314.50;5192047;28;20234;-69
2023/05/25 00:04:57;;;;;;;6.83;4.33;;;9.60;99.90;;;10.37;69.66;98310.88;5204065;28;20219;-69
2023/05/25 00:07:32;;;;;;;8.17;4.50;;;9.60;99.90;;;10.45;70.71;98313.06;5178622;28;20309;-69
2023/05/25 00:10:08;;;;;;;7.50;5.20;;;9.60;99.90;;;10.40;71.46;98311.88;5195303;28;20237;-70
2023/05/25 00:12:42;;;;;;;7.50;4.75;;;9.60;99.90;;;10.42;70.60;98310.31;5193093;28;20579;-69
2023/05/25 00:15:15;;;;;;;7.78;4.97;;;9.60;99.90;;;10.29;69.47;98303.50;5201197;28;20226;-69
2023/05/25 00:17:48;;;;;;;6.47;4.90;;;9.60;99.90;;;10.36;70.27;98306.56;5196948;28;20709;-69
2023/05/25 00:20:22;;;;;;;6.80;4.57;;;9.60;99.90;;;10.51;70.87;98306.66;5195909;28;20260;-69
2023/05/25 00:22:57;;;;;;;7.37;5.17;;;9.70;99.90;;;10.55;69.88;98302.63;5192091;28;20225;-69
2023/05/25 00:25:30;;;;;;;6.82;4.93;;;9.60;99.90;;;10.46;70.71;98300.38;5198803;28;20716;-69
2023/05/25 00:28:05;;;;;;;6.00;4.80;;;9.50;99.90;;;10.13;71.13;98301.59;5198238;28;20221;-69
2023/05/25 00:30:38;;;;;;;7.37;5.00;;;9.30;99.90;;;10.14;72.06;98305.91;5190557;28;20251;-69
2023/05/25 00:33:12;;;;;;;6.40;5.20;;;9.30;99.90;;;10.10;71.33;98303.91;5201014;28;20222;-69
2023/05/25 00:35:46;;;;;;;6.50;5.30;;;9.30;99.90;;;10.10;71.43;98306.47;5195920;28;20218;-69
2023/05/25 00:38:21;;;;;;;8.00;5.30;;;9.30;99.90;;;10.05;72.20;98302.75;5193823;28;20235;-69
2023/05/25 00:40:56;;;;;;;6.93;5.00;;;9.30;99.90;;;10.11;72.18;98313.38;5200157;28;20229;-69
2023/05/25 00:43:29;;;;;;;8.83;5.27;;;9.30;99.90;;;10.22;71.17;98306.41;5201638;28;20225;-69
2023/05/25 00:46:03;;;;;;;8.77;5.10;;;9.40;99.90;;;10.01;71.42;98301.66;5190810;28;20225;-68
2023/05/25 00:48:37;;;;;;;7.00;5.47;;;9.30;99.90;;;10.04;71.19;98304.41;5205906;28;20234;-69
2023/05/25 00:51:12;;;;;;;8.70;5.23;;;9.30;99.90;;;10.11;70.97;98292.94;5196791;28;20637;-69
2023/05/25 00:53:47;;;;;;;11.10;5.57;;;9.40;99.90;;;10.06;71.55;98299.41;5198244;28;20597;-70
2023/05/25 00:56:25;;;;;;;7.47;5.03;;;9.30;99.90;;;9.95;71.83;98295.25;5202994;28;20221;-70
2023/05/25 00:59:04;;;;;;;8.70;5.43;;;9.20;99.90;;;9.96;71.78;98292.81;5207747;28;20223;-69
2023/05/25 01:01:40;;;;;;;6.33;4.87;;;9.20;99.90;;;9.98;72.16;98290.34;5195411;28;20973;-69
2023/05/25 01:04:16;;;;;;;7.73;5.13;;;9.20;99.90;;;9.83;71.44;98296.22;5199398;28;20589;-70
2023/05/25 01:06:52;;;;;;;8.57;5.50;;;9.20;99.90;;;9.90;71.66;98298.41;5195236;28;20776;-70
2023/05/25 01:09:28;;;;;;;7.53;5.40;;;9.20;99.90;;;9.97;71.57;98298.81;5202182;28;20236;-69
2023/05/25 01:12:03;;;;;;;9.63;5.40;;;9.30;99.90;;;10.01;71.59;98298.22;5206724;28;20228;-69
2023/05/25 01:14:39;;;;;;;7.80;5.60;;;9.30;99.90;;;10.03;72.06;98297.53;5203547;28;20247;-69
2023/05/25 01:17:12;;;;;;;8.37;5.10;;;9.30;99.90;;;10.02;71.26;98297.44;5194727;28;20252;-69
2023/05/25 01:19:46;;;;;;;6.67;5.30;;;9.30;99.90;;;10.06;71.28;98300.28;5199474;28;20226;-69
2023/05/25 01:22:40;;;;;;;6.03;5.43;;;9.30;99.90;;;9.85;72.94;98296.31;5195662;28;20232;-69
2023/05/25 01:25:21;;;;;;;7.97;5.40;;;9.10;99.90;;;9.78;73.19;98292.44;5201376;28;20275;-69
2023/05/25 01:28:01;;;;;;;9.70;5.70;;;9.00;99.90;;;9.77;72.65;98288.13;5198321;28;20583;-69
2023/05/25 01:30:38;;;;;;;9.00;5.83;;;9.00;99.90;;;9.63;73.09;98297.41;5194572;28;20226;-69
2023/05/25 01:33:12;;;;;;;6.83;5.60;;;9.00;99.90;;;9.63;73.64;98299.97;5195184;28;20295;-69
2023/05/25 01:35:46;;;;;;;7.10;5.80;;;9.00;99.90;;;9.56;73.92;98297.81;5193975;28;20576;-69
2023/05/25 01:38:21;;;;;;;8.30;5.60;;;8.90;99.90;;;9.52;74.19;98297.47;5196841;28;20233;-70
2023/05/25 01:40:54;;;;;;;9.43;5.47;;;8.90;99.90;;;9.55;74.45;98301.13;5200746;28;20228;-69
2023/05/25 01:43:28;;;;;;;8.33;5.53;;;8.80;99.90;;;9.57;73.99;98302.13;5203218;28;20233;-69
2023/05/25 01:46:12;;;;;;;7.37;5.77;;;8.90;99.90;;;9.64;73.75;98294.09;5196346;28;20300;-69
2023/05/25 01:48:55;;;;;;;9.10;5.50;;;8.90;99.90;;;9.58;74.46;98297.88;5203410;28;20225;-69
2023/05/25 01:51:37;;;;;;;7.07;5.33;;;8.90;99.90;;;9.63;75.14;98291.44;5199674;28;20222;-69
2023/05/25 01:54:19;;;;;;;8.13;4.80;;;8.90;99.90;;;9.68;74.74;98290.09;5199875;28;20230;-69
2023/05/25 01:56:55;;;;;;;9.37;5.60;;;8.90;99.90;;;9.60;74.64;98296.34;5200243;28;20271;-69
2023/05/25 01:59:30;;;;;;;8.53;5.83;;;8.80;99.90;;;9.66;75.21;98289.09;5199577;28;20241;-69
2023/05/25 02:02:05;;;;;;;8.30;5.73;;;8.90;99.90;;;9.71;75.79;98285.19;5198623;28;20249;-69
2023/05/25 02:04:38;;;;;;;9.10;6.07;;;8.90;99.90;;;9.74;75.27;98294.72;5210162;28;20600;-69
2023/05/25 02:07:11;;;;;;;10.10;5.93;;;9.00;99.90;;;9.77;75.05;98292.38;5198766;28;20794;-69
2023/05/25 02:09:46;;;;;;;8.93;6.50;;;8.90;99.90;;;9.74;76.03;98289.63;5204805;28;20260;-69
2023/05/25 02:12:19;;;;;;;8.47;5.60;;;9.00;99.90;;;9.78;75.63;98284.78;5204211;28;20221;-69
2023/05/25 02:14:53;;;;;;;11.07;5.70;;;9.00;99.90;;;9.74;75.97;98290.50;5197921;28;20317;-69
2023/05/25 02:17:26;;;;;;;8.60;5.43;;;8.90;99.90;;;9.78;76.01;98286.47;5202861;28;20226;-69
2023/05/25 02:20:00;;;;;;;6.27;5.67;;;9.00;99.90;;;9.82;76.29;98276.56;5202074;28;20229;-69
2023/05/25 02:22:33;;;;;;;8.93;5.63;;;9.00;99.90;;;9.83;76.00;98274.91;5196531;28;20229;-69
2023/05/25 02:25:09;;;;;;;10.43;5.93;;;8.90;99.90;;;9.62;75.94;98279.47;5204287;28;20548;-69
2023/05/25 02:27:43;;;;;;;7.97;6.70;;;8.80;99.90;;;9.64;76.13;98277.88;5199369;28;20752;-69
2023/05/25 02:30:16;;;;;;;8.07;6.03;;;8.80;99.90;;;9.64;76.16;98275.31;5200328;28;20225;-69
2023/05/25 02:32:49;;;;;;;7.83;6.33;;;8.80;99.90;;;9.58;76.90;98267.25;5200758;28;20249;-69
2023/05/25 02:35:23;;;;;;;7.77;6.23;;;8.80;99.90;;;9.62;76.36;98264.16;5209785;28;20225;-69
2023/05/25 02:37:56;;;;;;;10.20;6.20;;;8.80;99.90;;;9.64;76.27;98268.59;5198419;28;20275;-69
2023/05/25 02:40:31;;;;;;;8.83;6.27;;;8.80;99.90;;;9.49;77.05;98267.53;5211515;28;20684;-69
2023/05/25 02:43:04;;;;;;;6.83;5.63;;;8.70;99.90;;;9.51;77.18;98272.75;5201860;28;20228;-69
2023/05/25 02:45:37;;;;;;;8.53;6.07;;;8.70;99.90;;;9.62;76.43;98270.13;5207579;28;20222;-69
2023/05/25 02:48:10;;;;;;;7.83;6.27;;;8.80;99.90;;;9.53;76.98;98264.44;5196474;28;20229;-69
2023/05/25 02:50:44;;;;;;;8.23;6.33;;;8.80;99.90;;;9.57;76.00;98262.97;5204784;28;20249;-69
2023/05/25 02:53:17;;;;;;;8.73;6.23;;;8.80;99.90;;;9.59;75.84;98264.84;5195731;28;20237;-69
2023/05/25 02:55:51;;;;;;;7.70;6.23;;;8.80;99.90;;;9.84;74.41;98264.81;5191823;28;20256;-69
2023/05/25 02:58:24;;;;;;;10.23;6.50;;;8.90;99.90;;;9.76;75.03;98268.50;5204444;28;20229;-69
2023/05/25 03:00:58;;;;;;;11.13;6.80;;;9.00;99.90;;;9.74;75.73;98266.63;5200897;28;20241;-69
2023/05/25 03:03:32;;;;;;;11.97;6.33;;;9.00;99.90;;;9.82;74.95;98271.47;5202439;28;20392;-69
2023/05/25 03:06:05;;;;;;;9.30;7.27;;;9.10;99.90;;;9.90;74.87;98267.75;5199404;28;20336;-69
2023/05/25 03:08:39;;;;;;;9.40;6.33;;;9.20;99.90;;;9.89;74.61;98260.88;5194888;28;20226;-68
2023/05/25 03:11:14;;;;;;;8.40;5.87;;;9.20;99.90;;;10.19;73.83;98275.53;5191192;28;20601;-69
2023/05/25 03:13:47;;;;;;;8.53;6.07;;;9.30;99.90;;;10.07;74.82;98278.19;5201109;28;20222;-69
2023/05/25 03:16:21;;;;;;;8.67;6.27;;;9.40;99.90;;;10.16;74.27;98278.81;5201927;28;20240;-69
2023/05/25 03:18:55;;;;;;;7.77;6.97;;;9.40;99.90;;;10.13;74.21;98286.28;5203497;28;20221;-69
2023/05/25 03:21:28;;;;;;;11.83;6.93;;;9.40;99.90;;;10.16;73.77;98291.56;5201018;28;20287;-69
2023/05/25 03:24:02;;;;;;;11.93;7.00;;;9.40;99.90;;;10.38;72.34;98292.19;5198181;28;20229;-69
2023/05/25 03:26:36;;;;;;;9.17;6.23;;;9.50;99.90;;;10.22;73.80;98286.88;5204952;28;20614;-69
2023/05/25 03:29:09;;;;;;;9.83;6.57;;;9.40;99.90;;;10.18;74.44;98284.88;5201173;28;20711;-69
2023/05/25 03:31:43;;;;;;;8.97;6.77;;;9.40;99.90;;;10.14;74.13;98285.47;5203426;28;20225;-68
2023/05/25 03:34:16;;;;;;;10.07;7.20;;;9.40;99.90;;;10.13;74.06;98281.16;5199267;28;20731;-69
2023/05/25 03:36:50;;;;;;;10.90;7.03;;;9.40;99.90;;;10.26;73.54;98273.50;5204837;28;20226;-70
2023/05/25 03:39:23;;;;;;;11.87;7.33;;;9.50;99.90;;;10.25;74.21;98287.06;5198321;28;20228;-69
2023/05/25 03:41:58;;;;;;;9.67;6.63;;;9.50;99.90;;;10.25;73.84;98281.94;5201482;28;20756;-69
2023/05/25 03:44:31;;;;;;;10.00;6.93;;;9.50;99.90;;;10.33;73.30;98285.94;5200465;28;20655;-70
2023/05/25 03:47:05;;;;;;;11.00;7.07;;;9.60;99.90;;;10.45;73.21;98290.06;5196969;28;20222;-69
2023/05/25 03:49:38;;;;;;;10.83;6.77;;;9.60;99.90;;;10.48;72.44;98285.16;5197747;28;20639;-69
2023/05/25 03:52:12;;;;;;;8.93;6.53;;;9.70;99.90;;;10.44;73.29;98280.59;5195756;28;20226;-69
2023/05/25 03:54:45;;;;;;;10.20;6.97;;;9.70;99.90;;;10.44;73.92;98284.03;5197211;28;20233;-69
2023/05/25 03:57:19;;;;;;;10.43;6.85;;;9.70;99.90;;;10.43;74.54;98281.41;5198522;28;20233;-69
2023/05/25 03:59:53;;;;;;;13.10;7.27;;;9.70;99.90;;;10.40;74.16;98287.19;5199702;28;20727;-69
2023/05/25 04:02:26;;;;;;;8.97;6.53;;;9.70;99.90;;;10.46;74.98;98292.69;5191996;28;20228;-69
2023/05/25 04:04:59;;;;;;;11.03;7.10;;;9.60;99.90;;;10.42;75.36;98290.75;5195014;28;20228;-69
2023/05/25 04:07:32;;;;;;;9.27;6.83;;;9.60;99.90;;;10.32;75.71;98294.34;5197387;28;20233;-69
2023/05/25 04:10:07;;;;;;;10.52;6.85;;;9.60;99.90;;;10.35;76.46;98298.78;5197712;28;20735;-69
2023/05/25 04:12:42;;;;;;;9.13;6.80;;;9.60;99.90;;;10.35;75.64;98294.56;5194134;28;20312;-69
2023/05/25 04:15:16;;;;;;;13.47;7.33;;;9.60;99.90;;;10.34;76.08;98307.25;5190626;28;20724;-69
2023/05/25 04:17:49;;;;;;;10.23;7.30;;;9.60;99.90;;;10.26;74.73;98300.72;5195943;28;20732;-68
2023/05/25 04:20:22;;;;;;;9.10;7.00;;;9.60;99.90;;;10.41;76.07;98298.28;5193894;28;20265;-68
2023/05/25 04:22:56;;;;;;;11.03;7.20;;;9.70;99.90;;;10.46;74.56;98300.38;5193780;28;20766;-69
2023/05/25 04:25:30;;;;;;;11.93;7.17;;;9.80;99.90;;;10.68;73.81;98294.97;5192663;28;20721;-69
2023/05/25 04:28:07;;;;;;;10.37;7.37;;;9.90;99.90;;;10.59;74.23;98302.06;5191173;28;20299;-68
2023/05/25 04:30:40;;;;;;;9.83;7.10;;;9.90;99.90;;;10.65;73.90;98299.88;5190780;28;20222;-68
2023/05/25 04:33:13;;;;;;;9.17;7.13;;;9.90;99.90;;;10.76;74.08;98298.91;5197863;28;20229;-69
2023/05/25 04:35:47;;;;;;;10.33;7.53;;;10.00;99.90;;;10.81;73.92;98300.03;5196671;28;20225;-68
2023/05/25 04:38:21;;;;;;;11.67;7.47;;;10.00;99.90;;;10.96;73.45;98299.25;5194216;28;20221;-69
2023/05/25 04:40:56;;;;;;;9.90;7.37;;;10.10;99.90;;;11.15;72.21;98314.06;5194110;28;20234;-68
2023/05/25 04:43:31;;;;;;;10.52;7.22;;;10.20;99.90;;;11.07;72.84;98303.34;5199297;28;20640;-68
2023/05/25 04:46:06;;;;;;;11.23;7.33;;;10.30;99.90;;;11.08;72.96;98306.81;5194182;28;20717;-69
2023/05/25 04:48:40;;;;;;;11.38;7.68;;;10.30;99.90;;;11.19;71.90;98311.81;5195276;28;20315;-69
2023/05/25 04:51:13;;;;;;;11.82;6.88;;;10.30;99.90;;;11.33;72.49;98311.75;5197617;28;20237;-69
2023/05/25 04:53:46;;;;;;;12.95;6.90;;;10.40;99.90;;;11.41;72.14;98308.88;5202448;28;20305;-68
2023/05/25 04:56:21;;;;;;;9.27;7.22;;;10.50;99.90;;;11.60;71.01;98310.88;5195337;28;20307;-69
2023/05/25 04:58:55;;;;;;;12.10;7.35;;;10.70;99.90;;;11.91;69.62;98312.75;5189482;28;20221;-68
2023/05/25 05:01:28;;;;;;;11.18;6.80;;;11.00;99.90;;;12.12;69.55;98319.13;5190451;28;20231;-70
2023/05/25 05:04:02;;;;;;;11.63;7.32;;;11.20;99.90;;;12.29;68.71;98316.66;5192234;28;20217;-70
2023/05/25 05:06:36;;;;;;;9.10;6.65;;;11.30;99.90;;;12.54;68.08;98319.81;5193289;28;20222;-69
2023/05/25 05:09:09;;;;;;;12.10;6.65;;;11.50;99.90;;;12.87;66.12;98329.31;5199914;28;20642;-70
2023/05/25 05:11:43;;;;;;;8.98;6.88;;;11.90;99.90;;;12.84;66.46;98328.34;5199250;28;20229;-70
2023/05/25 05:14:17;;;;;;;10.10;7.20;;;11.90;99.90;;;13.16;65.77;98333.47;5198944;28;20257;-70
2023/05/25 05:16:50;;;;;;;8.80;6.90;;;12.10;99.90;;;13.34;63.90;98329.38;5192696;28;20225;-70
2023/05/25 05:19:24;;;;;;;11.63;6.93;;;12.30;99.90;;;13.74;62.91;98328.94;5188424;28;20218;-69
2023/05/25 05:21:57;;;;;;;13.88;6.93;;;12.50;99.90;;;14.17;61.40;98326.00;5196253;28;20272;-69
2023/05/25 05:24:30;;;;;;;10.85;6.63;;;12.90;99.90;;;14.59;59.49;98336.66;5187453;28;20229;-70
2023/05/25 05:27:04;;;;;;;11.95;7.05;;;13.30;99.90;;;15.09;56.78;98331.38;5197105;28;20237;-70
2023/05/25 05:29:38;;;;;;;11.82;6.60;;;13.60;99.90;;;14.75;57.29;98336.59;5192248;28;20225;-70
2023/05/25 05:32:11;;;;;;;10.45;6.90;;;13.60;99.90;;;14.90;57.25;98336.44;5197280;28;20214;-70
2023/05/25 05:34:45;;;;;;;12.45;6.82;;;13.70;99.90;;;15.15;56.22;98341.06;5193431;28;20265;-69
2023/05/25 05:37:18;;;;;;;8.98;6.30;;;14.10;99.90;;;15.87;55.15;98338.34;5200009;28;20221;-69
2023/05/25 05:39:52;;;;;;;11.00;6.80;;;14.60;99.90;;;16.20;53.92;98344.97;5199132;28;20234;-69
2023/05/25 05:42:25;;;;;;;11.13;6.35;;;14.80;99.80;;;16.63;53.17;98340.72;5193605;28;20229;-69
2023/05/25 05:44:59;;;;;;;8.95;6.57;;;15.10;99.50;;;16.65;51.55;98344.22;5198382;28;20312;-69
2023/05/25 05:47:33;;;;;;;8.48;6.28;;;15.40;98.00;;;16.76;51.87;98331.75;5200215;28;20252;-69
2023/05/25 05:50:07;;;;;;;12.60;7.00;;;15.40;98.10;;;17.27;50.83;98332.06;5200619;28;20222;-70
2023/05/25 05:52:40;;;;;;;11.10;6.78;;;15.70;97.90;;;17.46;49.26;98342.28;5199623;28;20225;-69
2023/05/25 05:55:13;;;;;;;11.65;6.60;;;15.80;97.30;;;17.93;49.58;98347.47;5195824;28;20669;-69
2023/05/25 05:57:46;;;;;;;11.60;6.60;;;16.20;97.10;;;17.85;48.82;98354.94;5194918;28;20229;-68
2023/05/25 06:00:22;;;;;;;11.55;6.20;;;16.30;96.30;;;18.19;48.83;98346.69;5200965;28;20279;-69
2023/05/25 06:02:55;;;;;;;9.60;6.40;;;16.50;96.60;;;18.39;47.29;98355.13;5200157;28;20225;-69
2023/05/25 06:05:28;;;;;;;12.55;6.38;;;16.70;95.40;;;17.09;49.99;98351.22;5196710;28;20213;-69
2023/05/25 06:08:02;;;;;;;8.90;6.00;;;16.00;96.30;;;18.04;49.22;98360.81;5194977;28;20240;-69
2023/05/25 06:10:38;;;;;;;8.15;6.10;;;16.30;96.90;;;18.47;48.50;98360.59;5197404;28;20232;-69
2023/05/25 06:13:11;;;;;;;8.98;6.60;;;16.60;96.80;;;19.07;46.38;98362.59;5182274;28;20642;-68
2023/05/25 06:15:45;;;;;;;9.85;6.32;;;17.20;95.60;;;18.92;46.53;98356.91;5192380;28;20218;-69
2023/05/25 06:18:19;;;;;;;9.95;6.15;;;17.00;95.60;;;18.72;46.79;98361.41;5196385;28;20221;-68
2023/05/25 06:20:52;;;;;;;8.57;6.05;;;16.80;95.40;;;18.12;48.27;98369.72;5199998;28;20292;-70
2023/05/25 06:23:26;;;;;;;8.60;6.55;;;16.50;95.90;;;17.72;48.86;98370.84;5193061;28;20221;-69
2023/05/25 06:26:04;;;;;;;8.13;6.35;;;16.00;96.90;;;16.83;51.73;98373.41;5198989;28;20279;-68
2023/05/25 06:28:37;;;;;;;8.90;6.95;;;15.40;97.80;;;16.45;52.38;98382.09;5200459;28;20217;-68
2023/05/25 06:31:11;;;;;;;12.40;6.88;;;15.10;98.10;;;16.46;53.02;98383.00;5194349;28;20309;-69
2023/05/25 06:33:45;;;;;;;11.52;7.35;;;15.00;98.50;;;15.89;54.41;98377.97;5198056;28;20225;-68
2023/05/25 06:36:18;;;;;;;11.73;6.70;;;14.70;98.80;;;15.80;55.49;98382.72;5199043;28;20253;-68
2023/05/25 06:38:51;;;;;;;9.13;6.47;;;14.60;99.80;;;15.57;55.72;98390.25;5197542;28;20272;-67
2023/05/25 06:41:25;;;;;;;9.45;6.90;;;14.40;99.90;;;15.51;56.63;98382.25;5191247;28;20306;-68
2023/05/25 06:43:58;;;;;;;8.43;6.70;;;14.30;99.90;;;15.48;56.62;98376.91;5192696;28;20806;-68
2023/05/25 06:46:32;;;;;;;11.15;7.32;;;14.30;99.90;;;15.12;57.26;98384.69;5197243;28;20237;-69
2023/05/25 06:49:05;;;;;;;13.05;7.45;;;14.10;99.90;;;15.37;57.05;98376.44;5194781;28;20225;-68
2023/05/25 06:51:38;;;;;;;9.95;6.85;;;14.20;99.90;;;15.41;57.21;98387.75;5197285;28;20232;-68
2023/05/25 06:54:13;;;;;;;10.15;7.50;;;14.40;99.90;;;15.35;56.81;98385.78;5193352;28;20276;-68
2023/05/25 06:56:46;;;;;;;10.32;7.38;;;14.40;99.90;;;15.46;56.96;98392.31;5197887;28;20221;-67
2023/05/25 06:59:19;;;;;;;9.57;7.35;;;14.60;99.90;;;15.35;57.38;98402.94;5195510;28;20273;-69
2023/05/25 07:01:54;;;;;;;8.80;7.75;;;14.40;99.90;;;15.38;57.45;98392.78;5197903;28;20249;-67
2023/05/25 07:04:28;;;;;;;9.65;7.25;;;14.50;99.90;;;15.25;57.96;98407.66;5194472;28;20233;-68
2023/05/25 07:07:01;;;;;;;11.82;7.13;;;14.30;99.90;;;15.08;58.28;98404.28;5199402;28;20318;-69
2023/05/25 07:09:34;;;;;;;9.10;7.40;;;14.20;99.90;;;15.17;58.28;98413.25;5197098;28;20637;-68
2023/05/25 07:12:09;;;;;;;11.10;8.02;;;14.30;99.90;;;15.26;57.69;98404.28;5198266;28;20225;-69
2023/05/25 07:14:46;;;;;;;10.73;7.63;;;14.50;99.90;;;15.19;58.38;98407.34;5192526;28;20226;-68
2023/05/25 07:17:22;;;;;;;10.23;7.45;;;14.40;99.90;;;15.18;59.09;98403.00;5196426;28;20225;-68
2023/05/25 07:19:55;;;;;;;13.25;7.55;;;14.30;99.90;;;15.31;58.98;98407.94;5198036;28;20283;-68
2023/05/25 07:22:28;;;;;;;10.95;6.95;;;14.50;99.90;;;15.14;59.39;98411.41;5195607;28;20240;-68
2023/05/25 07:25:01;;;;;;;11.68;7.47;;;14.50;99.90;;;15.64;57.88;98405.16;5197475;28;20729;-69
2023/05/25 07:27:34;;;;;;;10.05;7.40;;;14.70;99.90;;;15.67;57.49;98409.56;5198521;28;20222;-68
2023/05/25 07:30:09;;;;;;;9.05;7.28;;;15.00;99.90;;;15.68;58.70;98420.00;5195383;28;20237;-70
2023/05/25 07:32:44;;;;;;;12.07;7.75;;;14.90;99.90;;;15.47;58.20;98418.97;5198408;28;20225;-68
2023/05/25 07:35:17;;;;;;;11.10;7.90;;;14.80;99.90;;;15.89;57.81;98414.94;5193916;28;20228;-68
2023/05/25 07:37:57;;;;;;;11.82;7.03;;;15.00;99.90;;;15.63;57.18;98411.13;5196533;28;20222;-68
2023/05/25 07:40:30;;;;;;;10.60;7.55;;;15.10;99.80;;;16.28;56.96;98419.19;5196285;28;20253;-70
2023/05/25 07:43:04;;;;;;;14.05;8.55;;;15.30;99.90;;;16.55;55.42;98414.34;5195790;28;20260;-69
2023/05/25 07:45:40;;;;;;;11.10;7.28;;;15.70;99.30;;;16.75;55.50;98410.91;5195223;28;20245;-68
2023/05/25 07:48:14;;;;;;;11.85;7.50;;;15.90;99.40;;;16.70;55.02;98414.13;5195727;28;20272;-69
2023/05/25 07:50:48;;;;;;;11.52;7.18;;;16.20;98.40;;;17.05;54.60;98413.91;5196509;28;20225;-68
2023/05/25 07:53:21;;;;;;;9.15;7.80;;;16.30;98.70;;;17.46;52.51;98411.22;5196949;28;20272;-68
2023/05/25 07:55:54;;;;;;;11.85;7.40;;;16.60;97.70;;;17.99;51.45;98415.81;5195704;28;20300;-68
2023/05/25 07:58:27;;;;;;;10.80;8.00;;;16.90;97.50;;;17.65;52.36;98411.06;5198781;28;20233;-69
2023/05/25 08:01:00;;;;;;;10.40;7.63;;;16.80;97.40;;;18.60;51.04;98408.47;5191794;28;20307;-68
2023/05/25 08:03:35;;;;;;;10.02;7.13;;;17.30;97.40;;;18.96;49.73;98405.41;5199157;28;20226;-69
2023/05/25 08:06:22;;;;;;;11.73;8.00;;;17.80;96.40;;;18.93;48.58;98405.31;5194573;28;20233;-68
2023/05/25 08:08:55;;;;;;;11.10;7.47;;;17.90;95.70;;;18.90;49.97;98406.06;5196059;28;20232;-68
2023/05/25 08:11:28;;;;;;;10.13;7.50;;;17.70;96.50;;;19.02;49.80;98403.00;5196127;28;20248;-69
2023/05/25 08:14:01;;;;;;;11.52;6.65;;;17.80;96.40;;;19.31;49.41;98396.16;5192966;28;20229;-68
2023/05/25 08:16:35;;;;;;;11.18;6.75;;;18.00;96.60;;;19.33;49.40;98405.75;5195230;28;20249;-69
2023/05/25 08:19:09;;;;;;;10.02;7.15;;;18.10;96.40;;;19.63;48.15;98402.34;5197974;28;20226;-68
2023/05/25 08:21:42;;;;;;;9.63;7.13;;;18.60;95.30;;;19.57;48.15;98402.13;5193255;28;20906;-68
2023/05/25 08:24:16;;;;;;;10.13;7.13;;;18.50;95.20;;;19.72;49.03;98402.66;5193852;28;20268;-68
2023/05/25 08:26:49;;;;;;;11.63;7.22;;;18.50;96.10;;;19.82;47.82;98408.97;5197312;28;20752;-68
2023/05/25 08:29:27;;;;;;;11.25;7.28;;;18.80;95.00;;;19.82;48.05;98396.00;5192869;28;20256;-68
2023/05/25 08:32:00;;;;;;;12.48;8.43;;;18.90;95.30;;;19.79;47.15;98398.50;5191643;28;20545;-69
2023/05/25 08:34:34;;;;;;;8.70;7.00;;;19.20;94.10;;;19.93;48.17;98398.91;5195211;28;20793;-68
2023/05/25 08:37:07;;;;;;;9.52;7.20;;;18.90;95.00;;;19.66;48.49;98394.69;5197224;28;20287;-68
2023/05/25 08:39:40;;;;;;;9.50;7.72;;;18.80;95.00;;;19.98;48.29;98405.13;5193690;28;20431;-69
2023/05/25 08:42:13;;;;;;;9.18;7.80;;;19.20;94.90;;;20.03;47.71;98411.31;5197242;28;20279;-68
2023/05/25 08:44:46;;;;;;;12.02;8.30;;;19.30;94.20;;;19.58;48.03;98396.13;5188396;28;20664;-68
2023/05/25 08:47:22;;;;;;;12.48;7.90;;;18.90;94.30;;;19.49;48.75;98388.97;5194391;28;20268;-68
2023/05/25 08:50:00;;;;;;;9.13;8.05;;;18.80;94.80;;;19.48;48.56;98386.31;5194166;28;20222;-68
2023/05/25 08:52:36;;;;;;;8.98;7.80;;;18.80;94.60;;;19.45;49.28;98391.41;5189396;28;20763;-68
2023/05/25 08:55:10;;;;;;;9.98;7.13;;;18.80;95.00;;;19.48;48.44;98396.66;5197772;28;20310;-68
2023/05/25 08:57:50;;;;;;;9.65;7.85;;;18.90;94.40;;;19.64;49.18;98404.09;5201883;28;20270;-67
2023/05/25 09:00:30;;;;;;;10.18;7.38;;;19.00;94.90;;;19.44;48.92;98394.84;5200650;28;20307;-68
2023/05/25 09:03:10;;;;;;;10.13;7.53;;;18.90;94.50;;;19.75;48.99;98392.34;5196758;28;20635;-68
2023/05/25 09:05:45;;;;;;;11.23;7.90;;;19.20;94.70;;;19.77;49.52;98385.50;5196695;28;20225;-68
2023/05/25 09:08:21;;;;;;;10.80;7.22;;;19.30;94.80;;;19.73;49.46;98383.63;5198752;28;20222;-68
2023/05/25 09:10:56;;;;;;;11.10;8.35;;;19.20;94.80;;;19.84;49.05;98391.75;5197387;28;20650;-68
2023/05/25 09:13:30;;;;;;;9.43;7.65;;;19.30;94.60;;;19.48;50.44;98392.34;5200766;28;20252;-68
2023/05/25 09:16:03;;;;;;;9.45;8.05;;;19.10;95.20;;;19.52;50.51;98396.81;5197224;28;20277;-68
2023/05/25 09:18:36;;;;;;;8.77;7.78;;;19.20;95.20;;;19.66;49.99;98392.09;5199599;28;20225;-68
2023/05/25 09:21:11;;;;;;;10.25;8.13;;;19.40;95.00;;;19.75;49.82;98389.75;5204404;28;20233;-67
2023/05/25 09:23:45;;;;;;;10.75;8.00;;;19.40;94.60;;;19.81;49.71;98402.03;5201957;28;20244;-68
2023/05/25 09:26:18;;;;;;;11.70;7.85;;;19.50;94.60;;;19.83;49.58;98399.47;5199764;28;20333;-68
2023/05/25 09:28:51;;;;;;;9.38;7.97;;;19.30;94.90;;;19.49;50.42;98393.25;5198007;28;20280;-68
2023/05/25 09:31:24;;;;;;;7.90;6.78;;;19.20;95.00;;;20.07;51.14;98399.31;5201766;28;20225;-68
2023/05/25 09:33:58;;;;;;;9.50;6.78;;;19.60;95.80;;;20.40;49.68;98395.06;5199794;28;20678;-68
2023/05/25 09:36:37;;;;;;;9.65;7.53;;;20.00;95.00;;;20.62;48.89;98393.03;5201703;28;20239;-68
2023/05/25 09:39:12;;;;;;;9.05;7.95;;;20.30;94.40;;;20.61;48.15;98386.09;5199961;28;20229;-68
2023/05/25 09:41:46;;;;;;;11.80;8.52;;;20.10;94.10;;;20.56;48.16;98388.56;5201432;28;20776;-69
2023/05/25 09:44:19;;;;;;;10.73;7.50;;;20.40;93.90;;;20.23;49.11;98397.19;5194410;28;20267;-68
2023/05/25 09:46:52;;;;;;;10.43;7.90;;;19.90;94.20;;;20.39;48.55;98397.59;5202777;28;20596;-69
2023/05/25 09:49:27;;;;;;;7.78;6.88;;;19.90;94.20;;;20.49;48.77;98399.59;5196914;28;20213;-68
2023/05/25 09:52:02;;;;;;;9.32;7.25;;;19.90;94.60;;;20.52;49.25;98404.88;5198275;28;20787;-68
2023/05/25 09:54:37;;;;;;;10.38;7.18;;;19.90;94.90;;;20.78;49.49;98409.91;5202811;28;20732;-68
2023/05/25 09:57:11;;;;;;;8.73;7.78;;;20.30;95.10;;;20.90;47.81;98410.22;5195165;28;20228;-68
2023/05/25 09:59:44;;;;;;;9.80;7.32;;;20.70;93.80;;;20.70;48.95;98400.19;5198930;28;20218;-68
2023/05/25 10:02:18;;;;;;;8.93;7.60;;;20.30;94.30;;;20.96;48.29;98404.28;5198467;28;20240;-68
2023/05/25 10:04:51;;;;;;;9.90;6.80;;;20.30;94.30;;;21.26;47.85;98401.53;5201802;28;20233;-68
2023/05/25 10:07:26;;;;;;;10.82;7.20;;;20.70;94.10;;;20.91;48.95;98398.97;5204965;28;20716;-68
2023/05/25 10:10:06;;;;;;;10.32;7.13;;;20.60;94.30;;;20.34;49.67;98397.44;5201904;28;20646;-68
2023/05/25 10:12:41;;;;;;;8.55;7.50;;;20.10;94.50;;;20.55;49.40;98402.41;5198541;28;20225;-68
2023/05/25 10:15:15;;;;;;;9.82;7.00;;;20.20;94.60;;;20.45;49.89;98400.34;5201308;28;20299;-68
2023/05/25 10:17:54;;;;;;;9.80;8.00;;;20.00;95.00;;;20.29;50.06;98405.94;5196819;28;20224;-68
2023/05/25 10:20:28;;;;;;;9.43;7.10;;;20.20;94.60;;;20.56;50.29;98401.53;5202056;28;20225;-67
2023/05/25 10:23:11;;;;;;;8.90;7.45;;;20.20;94.90;;;20.67;48.99;98405.31;5197699;28;20217;-68
2023/05/25 10:25:47;;;;;;;7.75;6.70;;;20.30;94.50;;;20.67;49.91;98397.50;5198830;28;20222;-68
2023/05/25 10:28:28;;;;;;;10.57;7.13;;;20.20;95.30;;;20.76;49.15;98412.47;5199345;28;20225;-68
2023/05/25 10:31:01;;;;;;;9.52;7.30;;;20.30;94.60;;;20.64;49.49;98405.22;5200696;28;20229;-69
2023/05/25 10:33:35;;;;;;;8.18;6.82;;;20.20;94.80;;;20.87;48.88;98411.00;5198280;28;20249;-68
2023/05/25 10:36:12;;;;;;;11.05;8.25;;;20.30;94.60;;;21.00;47.79;98401.78;5195585;28;20236;-68
2023/05/25 10:38:47;;;;;;;9.45;7.10;;;20.50;93.90;;;21.13;49.11;98408.19;5200078;28;20244;-69
2023/05/25 10:41:21;;;;;;;8.93;7.25;;;20.60;94.40;;;21.27;47.93;98414.59;5199251;28;20709;-68
2023/05/25 10:43:54;;;;;;;10.85;6.95;;;20.80;94.00;;;21.54;46.77;98388.34;5194287;28;20638;-69
2023/05/25 10:46:28;;;;;;;9.18;7.18;;;21.00;93.30;;;21.58;46.85;98400.59;5191310;28;20610;-69
2023/05/25 10:49:02;;;;;;;8.00;6.93;;;20.90;93.50;;;21.51;46.37;98396.09;5192266;28;20312;-69
2023/05/25 10:51:39;;;;;;;8.80;7.20;;;21.00;93.10;;;20.95;47.99;98392.16;5196672;28;20253;-68